Time;durP1;ratioP1;P1;durP2;ratioP2;P2;SDS_P1;SDS_P2;PMS_P1;PMS_P2;Temp;Humidity;BMP_temperature;BMP_pressure;BME280_temperature;BME280_humidity;BME280_pressure;Samples;Min_cycle;Max_cycle;Signal;HPM_P1;HPM_P2
2023/04/25 00:00:48;;;;;;;22.08;4.90;;;;;;;;;;5069344;27;100021;-74
2023/04/25 00:03:15;;;;;;;26.40;5.35;;;;;;;;;;5059946;27;98623;-75
2023/04/25 00:05:42;;;;;;;23.38;5.03;;;;;;;;;;5068933;27;98683;-74
2023/04/25 00:08:09;;;;;;;15.25;5.18;;;;;;;;;;5072953;27;99805;-74
2023/04/25 00:10:36;;;;;;;22.30;5.43;;;;;;;;;;5062569;27;98819;-74
2023/04/25 00:13:02;;;;;;;17.92;4.93;;;;;;;;;;5069403;27;99103;-75
2023/04/25 00:15:31;;;;;;;31.63;5.65;;;;;;;;;;5060115;27;98270;-75
2023/04/25 00:17:58;;;;;;;21.42;4.63;;;;;;;;;;5068778;27;99592;-75
2023/04/25 00:20:24;;;;;;;13.63;4.45;;;;;;;;;;5067245;27;99632;-74
2023/04/25 00:22:53;;;;;;;18.77;4.78;;;;;;;;;;5068256;27;98213;-74
2023/04/25 00:25:19;;;;;;;18.27;4.93;;;;;;;;;;5068239;27;99532;-75
2023/04/25 00:27:45;;;;;;;21.55;5.55;;;;;;;;;;5066072;27;100269;-75
2023/04/25 00:30:12;;;;;;;20.33;5.57;;;;;;;;;;5068960;27;98339;-75
2023/04/25 00:32:39;;;;;;;25.60;5.45;;;;;;;;;;5066531;27;99912;-75
2023/04/25 00:35:05;;;;;;;24.45;5.30;;;;;;;;;;5064745;27;100505;-73
2023/04/25 00:37:32;;;;;;;22.98;5.00;;;;;;;;;;5067130;27;98493;-74
2023/04/25 00:39:58;;;;;;;24.27;5.05;;;;;;;;;;5067265;27;98999;-76
2023/04/25 00:42:25;;;;;;;15.82;4.75;;;;;;;;;;5066694;27;98229;-74
2023/04/25 00:44:52;;;;;;;24.63;5.28;;;;;;;;;;5066783;27;98944;-74
2023/04/25 00:47:19;;;;;;;23.20;6.00;;;;;;;;;;5069206;27;98769;-75
2023/04/25 00:49:45;;;;;;;18.33;4.90;;;;;;;;;;5068334;27;99042;-74
2023/04/25 00:52:12;;;;;;;15.65;4.32;;;;;;;;;;5070893;27;99414;-74
2023/04/25 00:54:38;;;;;;;15.95;4.60;;;;;;;;;;5066770;27;98366;-74
2023/04/25 00:57:05;;;;;;;19.85;5.13;;;;;;;;;;5066992;27;98531;-75
2023/04/25 00:59:31;;;;;;;16.90;4.32;;;;;;;;;;5065985;27;99098;-75
2023/04/25 01:01:58;;;;;;;19.58;4.40;;;;;;;;;;5059880;27;99516;-75
2023/04/25 01:04:24;;;;;;;20.17;4.28;;;;;;;;;;5067936;27;98737;-76
2023/04/25 01:06:51;;;;;;;23.50;6.45;;;;;;;;;;5065614;27;99215;-75
2023/04/25 01:09:19;;;;;;;19.77;4.93;;;;;;;;;;5066730;27;98297;-75
2023/04/25 01:11:45;;;;;;;26.58;5.25;;;;;;;;;;5067083;27;101235;-75
2023/04/25 01:14:12;;;;;;;14.65;4.22;;;;;;;;;;5069793;27;98709;-74
2023/04/25 01:16:38;;;;;;;30.95;5.03;;;;;;;;;;5068862;27;98328;-75
2023/04/25 01:19:11;;;;;;;20.55;4.95;;;;;;;;;;5066047;27;99998;-75
2023/04/25 01:21:37;;;;;;;22.08;6.93;;;;;;;;;;5061768;27;98631;-75
2023/04/25 01:24:04;;;;;;;17.05;4.30;;;;;;;;;;5067165;27;99607;-75
2023/04/25 01:26:31;;;;;;;10.88;3.70;;;;;;;;;;5064016;27;101300;-75
2023/04/25 01:28:58;;;;;;;22.25;4.05;;;;;;;;;;5064312;27;98320;-74
2023/04/25 01:31:25;;;;;;;26.50;5.00;;;;;;;;;;5065253;27;99802;-74
2023/04/25 01:33:51;;;;;;;16.80;4.45;;;;;;;;;;5068147;27;98701;-73
2023/04/25 01:36:18;;;;;;;18.70;4.30;;;;;;;;;;5067998;27;99675;-74
2023/04/25 01:38:47;;;;;;;23.98;4.95;;;;;;;;;;5066663;27;98925;-73
2023/04/25 01:41:14;;;;;;;19.55;4.35;;;;;;;;;;5081839;27;98365;-74
2023/04/25 01:43:40;;;;;;;19.13;4.72;;;;;;;;;;5065317;27;100974;-73
2023/04/25 01:46:07;;;;;;;23.40;5.20;;;;;;;;;;5061417;27;99985;-74
2023/04/25 01:48:33;;;;;;;21.95;4.22;;;;;;;;;;5067819;27;98217;-75
2023/04/25 01:51:00;;;;;;;23.88;6.07;;;;;;;;;;5065489;27;99694;-75
2023/04/25 01:53:28;;;;;;;18.15;4.78;;;;;;;;;;5065567;27;101718;-74
2023/04/25 01:55:54;;;;;;;14.13;3.83;;;;;;;;;;5068305;27;98135;-75
2023/04/25 01:58:23;;;;;;;19.60;4.28;;;;;;;;;;5061295;27;101414;-75
2023/04/25 02:01:20;;;;;;;20.33;4.25;;;;;;;;;;5054747;27;98654;-74
2023/04/25 02:04:06;;;;;;;8.05;3.83;;;;;;;;;;5066023;27;99159;-75
2023/04/25 02:06:35;;;;;;;17.40;3.78;;;;;;;;;;5064051;27;101025;-73
2023/04/25 02:09:02;;;;;;;15.00;4.47;;;;;;;;;;5064169;27;98696;-74
2023/04/25 02:11:28;;;;;;;19.50;4.40;;;;;;;;;;5067394;27;99496;-74
2023/04/25 02:14:14;;;;;;;11.68;3.83;;;;;;;;;;5066999;27;99114;-74
2023/04/25 02:16:54;;;;;;;14.38;4.07;;;;;;;;;;5064002;27;98328;-74
2023/04/25 02:19:22;;;;;;;15.23;4.18;;;;;;;;;;5060984;27;101130;-74
2023/04/25 02:21:48;;;;;;;16.83;4.22;;;;;;;;;;5063951;27;99674;-73
2023/04/25 02:24:14;;;;;;;17.42;4.05;;;;;;;;;;5067301;27;98620;-74
2023/04/25 02:26:41;;;;;;;19.75;5.05;;;;;;;;;;5065855;27;99939;-74
2023/04/25 02:29:08;;;;;;;15.25;3.85;;;;;;;;;;5066031;27;98380;-74
2023/04/25 02:31:34;;;;;;;16.88;4.35;;;;;;;;;;5066100;27;100790;-75
2023/04/25 02:34:01;;;;;;;12.35;4.28;;;;;;;;;;5065583;27;101177;-73
2023/04/25 02:36:30;;;;;;;22.67;4.70;;;;;;;;;;5063694;27;98589;-74
2023/04/25 02:38:56;;;;;;;20.38;5.85;;;;;;;;;;5062185;27;101104;-74
2023/04/25 02:41:22;;;;;;;21.23;4.90;;;;;;;;;;5072332;27;99128;-74
2023/04/25 02:43:49;;;;;;;19.42;4.60;;;;;;;;;;5069430;27;99580;-74
2023/04/25 02:46:17;;;;;;;19.95;4.85;;;;;;;;;;5069422;27;99411;-74
2023/04/25 02:48:58;;;;;;;17.98;4.55;;;;;;;;;;5062588;27;98212;-77
2023/04/25 02:51:26;;;;;;;12.48;4.78;;;;;;;;;;5068691;27;99438;-74
2023/04/25 02:53:52;;;;;;;21.73;5.22;;;;;;;;;;5064870;27;100925;-74
2023/04/25 02:56:19;;;;;;;15.88;4.63;;;;;;;;;;5067713;27;99888;-75
2023/04/25 02:58:45;;;;;;;13.30;4.20;;;;;;;;;;5067562;27;100733;-74
2023/04/25 03:01:12;;;;;;;22.27;5.32;;;;;;;;;;5047174;27;101562;-74
2023/04/25 03:03:38;;;;;;;16.25;4.93;;;;;;;;;;5051627;27;98266;-74
2023/04/25 03:06:05;;;;;;;20.15;5.38;;;;;;;;;;5064186;27;101322;-74
2023/04/25 03:08:34;;;;;;;26.92;5.53;;;;;;;;;;5068362;27;98999;-73
2023/04/25 03:11:01;;;;;;;17.95;4.55;;;;;;;;;;5067897;27;100540;-74
2023/04/25 03:13:29;;;;;;;20.30;4.15;;;;;;;;;;5067460;27;100209;-73
2023/04/25 03:15:56;;;;;;;15.20;4.43;;;;;;;;;;5070025;27;98909;-74
2023/04/25 03:18:23;;;;;;;22.70;5.90;;;;;;;;;;5068283;27;101078;-74
2023/04/25 03:20:49;;;;;;;22.27;5.13;;;;;;;;;;5068100;27;100985;-74
2023/04/25 03:23:16;;;;;;;21.90;4.65;;;;;;;;;;5066458;27;100218;-73
2023/04/25 03:25:42;;;;;;;31.52;6.95;;;;;;;;;;5065937;27;100630;-74
2023/04/25 03:28:09;;;;;;;25.50;5.22;;;;;;;;;;5061770;27;98207;-73
2023/04/25 03:30:35;;;;;;;19.33;4.90;;;;;;;;;;5068890;27;100989;-74
2023/04/25 03:33:02;;;;;;;16.55;4.90;;;;;;;;;;5068701;27;99936;-74
2023/04/25 03:35:28;;;;;;;17.40;5.72;;;;;;;;;;5067703;27;98225;-74
2023/04/25 03:37:55;;;;;;;17.08;4.88;;;;;;;;;;5069594;27;99139;-73
2023/04/25 03:40:27;;;;;;;20.00;5.07;;;;;;;;;;5068010;27;99099;-73
2023/04/25 03:43:23;;;;;;;17.48;5.18;;;;;;;;;;5046959;27;98280;-74
2023/04/25 03:45:56;;;;;;;16.63;4.35;;;;;;;;;;5072831;27;98704;-74
2023/04/25 03:48:27;;;;;;;12.80;4.30;;;;;;;;;;5065712;27;98301;-74
2023/04/25 03:50:54;;;;;;;20.60;4.72;;;;;;;;;;5068451;27;100698;-74
2023/04/25 03:53:20;;;;;;;11.00;3.72;;;;;;;;;;5067951;27;101213;-75
2023/04/25 03:56:07;;;;;;;36.30;5.00;;;;;;;;;;5069544;27;98247;-74
2023/04/25 03:58:35;;;;;;;12.05;3.63;;;;;;;;;;5069749;27;98299;-74
2023/04/25 04:01:07;;;;;;;16.20;3.97;;;;;;;;;;5067224;27;99947;-74
2023/04/25 04:03:36;;;;;;;8.65;3.30;;;;;;;;;;5066697;27;98943;-74
2023/04/25 04:06:05;;;;;;;14.50;3.60;;;;;;;;;;5066760;27;100445;-74
2023/04/25 04:08:35;;;;;;;14.98;5.35;;;;;;;;;;5061517;27;99240;-75
2023/04/25 04:11:02;;;;;;;23.30;5.72;;;;;;;;;;5065072;27;100372;-74
2023/04/25 04:13:28;;;;;;;15.48;3.70;;;;;;;;;;5063690;27;101904;-74
2023/04/25 04:15:55;;;;;;;19.38;4.47;;;;;;;;;;5067004;27;98398;-75
2023/04/25 04:18:22;;;;;;;11.25;2.80;;;;;;;;;;5065662;27;100700;-73
2023/04/25 04:20:48;;;;;;;16.73;3.65;;;;;;;;;;5069190;27;101332;-73
2023/04/25 04:23:16;;;;;;;8.73;2.95;;;;;;;;;;5065989;27;98288;-74
2023/04/25 04:25:43;;;;;;;13.68;2.67;;;;;;;;;;5068317;27;98950;-75
2023/04/25 04:28:18;;;;;;;9.98;2.63;;;;;;;;;;5066928;27;99344;-74
2023/04/25 04:31:04;;;;;;;14.68;2.75;;;;;;;;;;5070045;27;98082;-73
2023/04/25 04:33:32;;;;;;;9.30;2.78;;;;;;;;;;5067263;27;102161;-73
2023/04/25 04:36:02;;;;;;;5.18;2.47;;;;;;;;;;5067225;27;98273;-74
2023/04/25 04:38:29;;;;;;;11.20;2.28;;;;;;;;;;5065267;27;100428;-74
2023/04/25 04:40:59;;;;;;;9.68;2.53;;;;;;;;;;5068198;27;100469;-74
2023/04/25 04:43:36;;;;;;;5.45;2.13;;;;;;;;;;5065201;27;98283;-74
2023/04/25 04:46:22;;;;;;;9.52;4.30;;;;;;;;;;5066458;27;100773;-75
2023/04/25 04:49:13;;;;;;;6.47;1.67;;;;;;;;;;5024291;27;99241;-73
2023/04/25 04:52:02;;;;;;;4.25;1.90;;;;;;;;;;5059833;27;98515;-73
2023/04/25 04:54:47;;;;;;;6.30;2.33;;;;;;;;;;5070234;27;98191;-74
2023/04/25 04:57:21;;;;;;;6.68;2.25;;;;;;;;;;5063615;27;98272;-74
2023/04/25 05:00:10;;;;;;;7.57;2.08;;;;;;;;;;5064784;27;100427;-74
2023/04/25 05:02:56;;;;;;;9.85;2.05;;;;;;;;;;5068421;27;98340;-74
2023/04/25 05:05:31;;;;;;;5.32;2.10;;;;;;;;;;5065780;27;98384;-73
2023/04/25 05:08:16;;;;;;;8.18;2.25;;;;;;;;;;5059709;27;100559;-73
2023/04/25 05:11:05;;;;;;;6.15;2.20;;;;;;;;;;5045256;27;98805;-74
2023/04/25 05:13:37;;;;;;;9.15;2.75;;;;;;;;;;5067077;27;98290;-74
2023/04/25 05:16:34;;;;;;;12.48;2.67;;;;;;;;;;5060190;27;101440;-74
2023/04/25 05:19:29;;;;;;;9.10;2.15;;;;;;;;;;5061245;27;100249;-73
2023/04/25 05:22:16;;;;;;;4.65;1.85;;;;;;;;;;5064784;27;100270;-74
2023/04/25 05:25:08;;;;;;;11.82;2.65;;;;;;;;;;5066464;27;100855;-75
2023/04/25 05:27:51;;;;;;;9.00;2.10;;;;;;;;;;5067461;27;99071;-74
2023/04/25 05:30:37;;;;;;;6.57;2.08;;;;;;;;;;5059556;27;98538;-73
2023/04/25 05:33:24;;;;;;;20.70;3.05;;;;;;;;;;5066292;27;98631;-74
2023/04/25 05:35:50;;;;;;;8.52;2.55;;;;;;;;;;5069023;27;98471;-73
2023/04/25 05:38:17;;;;;;;15.70;3.10;;;;;;;;;;5067024;27;98662;-73
2023/04/25 05:41:16;;;;;;;10.82;2.33;;;;;;;;;;5032204;27;98983;-74
2023/04/25 05:44:06;;;;;;;8.98;3.17;;;;;;;;;;5063725;27;98263;-73
2023/04/25 05:46:44;;;;;;;4.93;2.47;;;;;;;;;;5066026;27;101216;-73
2023/04/25 05:49:16;;;;;;;8.33;3.23;;;;;;;;;;5066903;27;98397;-73
2023/04/25 05:52:14;;;;;;;15.55;3.17;;;;;;;;;;5054426;27;98645;-74
2023/04/25 05:55:08;;;;;;;6.95;2.33;;;;;;;;;;5041799;27;98733;-73
2023/04/25 05:57:35;;;;;;;3.38;1.98;;;;;;;;;;5064021;27;99689;-73
2023/04/25 06:00:03;;;;;;;12.90;2.80;;;;;;;;;;5064997;27;98500;-73
2023/04/25 06:02:43;;;;;;;9.85;2.30;;;;;;;;;;5066063;27;99406;-73
2023/04/25 06:05:13;;;;;;;7.78;2.28;;;;;;;;;;5068188;27;98220;-74
2023/04/25 06:07:39;;;;;;;16.23;2.83;;;;;;;;;;5064648;27;102262;-74
2023/04/25 06:10:06;;;;;;;11.93;2.78;;;;;;;;;;5065760;27;98268;-73
2023/04/25 06:12:33;;;;;;;8.52;2.50;;;;;;;;;;5066549;27;98374;-75
2023/04/25 06:15:00;;;;;;;7.90;2.30;;;;;;;;;;5067177;27;102025;-74
2023/04/25 06:17:30;;;;;;;12.63;2.65;;;;;;;;;;5062039;27;99660;-73
2023/04/25 06:19:57;;;;;;;11.05;2.38;;;;;;;;;;5057641;27;101135;-73
2023/04/25 06:22:23;;;;;;;8.07;1.90;;;;;;;;;;5065350;27;101268;-73
2023/04/25 06:24:50;;;;;;;4.97;1.77;;;;;;;;;;5064399;27;98676;-74
2023/04/25 06:27:16;;;;;;;7.70;2.17;;;;;;;;;;5062717;27;102694;-74
2023/04/25 06:29:43;;;;;;;13.13;2.97;;;;;;;;;;5061136;27;98386;-74
2023/04/25 06:32:09;;;;;;;13.43;3.58;;;;;;;;;;5058705;27;99328;-76
2023/04/25 06:34:36;;;;;;;13.20;3.25;;;;;;;;;;5068674;27;101223;-76
2023/04/25 06:37:02;;;;;;;8.45;2.50;;;;;;;;;;5069139;27;98927;-75
2023/04/25 06:39:28;;;;;;;14.48;3.15;;;;;;;;;;5059172;27;100323;-73
2023/04/25 06:41:55;;;;;;;13.73;3.10;;;;;;;;;;5065403;27;99686;-74
2023/04/25 06:44:50;;;;;;;13.68;2.63;;;;;;;;;;5054821;27;98887;-74
2023/04/25 06:47:18;;;;;;;13.60;2.78;;;;;;;;;;5067906;27;101047;-73
2023/04/25 06:49:45;;;;;;;8.63;2.40;;;;;;;;;;5071374;27;99026;-75
2023/04/25 06:52:11;;;;;;;11.75;3.05;;;;;;;;;;5070032;27;100963;-74
2023/04/25 06:54:38;;;;;;;9.98;2.42;;;;;;;;;;5066947;27;100752;-74
2023/04/25 06:57:25;;;;;;;10.35;2.20;;;;;;;;;;5062263;27;98518;-74
2023/04/25 06:59:52;;;;;;;8.90;2.10;;;;;;;;;;5065884;27;99510;-74
2023/04/25 07:02:20;;;;;;;11.48;1.85;;;;;;;;;;5061156;27;98990;-73
2023/04/25 07:04:50;;;;;;;7.63;2.17;;;;;;;;;;5066011;27;98350;-75
2023/04/25 07:07:17;;;;;;;11.68;3.60;;;;;;;;;;5068316;27;99399;-73
2023/04/25 07:09:50;;;;;;;16.75;2.85;;;;;;;;;;5059361;27;100948;-73
2023/04/25 07:12:16;;;;;;;12.77;2.95;;;;;;;;;;5066744;27;98347;-74
2023/04/25 07:14:43;;;;;;;6.28;2.08;;;;;;;;;;5066379;27;101024;-73
2023/04/25 07:17:10;;;;;;;8.43;2.78;;;;;;;;;;5065234;27;100094;-74
2023/04/25 07:19:38;;;;;;;9.93;2.50;;;;;;;;;;5060292;27;100440;-73
2023/04/25 07:22:06;;;;;;;8.02;2.10;;;;;;;;;;5065938;27;100083;-73
2023/04/25 07:24:34;;;;;;;18.15;2.80;;;;;;;;;;5060480;27;98314;-74
2023/04/25 07:27:01;;;;;;;10.52;2.35;;;;;;;;;;5062723;27;100355;-74
2023/04/25 07:29:50;;;;;;;8.30;2.45;;;;;;;;;;5057522;27;99566;-74
2023/04/25 07:32:16;;;;;;;11.65;2.85;;;;;;;;;;5068981;27;98666;-73
2023/04/25 07:34:43;;;;;;;6.88;2.35;;;;;;;;;;5072488;27;101186;-75
2023/04/25 07:37:10;;;;;;;10.68;2.25;;;;;;;;;;5083877;27;98303;-73
2023/04/25 07:39:48;;;;;;;7.05;2.10;;;;;;;;;;5065579;27;99883;-74
2023/04/25 07:42:15;;;;;;;7.72;2.00;;;;;;;;;;5068465;27;99337;-74
2023/04/25 07:44:43;;;;;;;10.95;2.10;;;;;;;;;;5066361;27;98336;-74
2023/04/25 07:47:12;;;;;;;10.00;2.25;;;;;;;;;;5068150;27;100669;-74
2023/04/25 07:49:40;;;;;;;6.25;1.52;;;;;;;;;;5067963;27;100118;-73
2023/04/25 07:52:06;;;;;;;8.18;2.40;;;;;;;;;;5065178;27;99780;-74
2023/04/25 07:54:34;;;;;;;6.20;2.50;;;;;;;;;;5067338;27;98443;-74
2023/04/25 07:57:08;;;;;;;8.02;2.35;;;;;;;;;;5065517;27;98354;-74
2023/04/25 07:59:36;;;;;;;7.15;2.10;;;;;;;;;;5065930;27;99538;-75
2023/04/25 08:02:05;;;;;;;11.23;2.70;;;;;;;;;;5063648;27;101267;-75
2023/04/25 08:04:32;;;;;;;7.25;1.83;;;;;;;;;;5060692;27;99236;-74
2023/04/25 08:07:02;;;;;;;18.27;2.15;;;;;;;;;;5057998;27;98584;-74
2023/04/25 08:09:36;;;;;;;9.20;2.08;;;;;;;;;;5068192;27;99244;-74
2023/04/25 08:12:06;;;;;;;8.35;2.30;;;;;;;;;;5067610;27;98344;-75
2023/04/25 08:14:35;;;;;;;10.68;2.15;;;;;;;;;;5065736;27;98377;-74
2023/04/25 08:17:03;;;;;;;10.15;2.60;;;;;;;;;;5059734;27;100194;-74
2023/04/25 08:19:32;;;;;;;5.68;1.60;;;;;;;;;;5068205;27;98532;-75
2023/04/25 08:21:58;;;;;;;11.65;2.00;;;;;;;;;;5047279;27;99890;-75
2023/04/25 08:24:34;;;;;;;10.93;1.92;;;;;;;;;;5064854;27;100718;-75
2023/04/25 08:27:06;;;;;;;7.65;1.92;;;;;;;;;;5068284;27;99597;-75
2023/04/25 08:29:33;;;;;;;6.57;1.67;;;;;;;;;;5066298;27;100003;-74
2023/04/25 08:31:59;;;;;;;7.05;2.05;;;;;;;;;;5060433;27;98223;-75
2023/04/25 08:34:27;;;;;;;3.25;1.60;;;;;;;;;;5065031;27;101097;-75
2023/04/25 08:36:54;;;;;;;2.10;1.20;;;;;;;;;;5066617;27;98952;-75
2023/04/25 08:39:44;;;;;;;5.82;1.27;;;;;;;;;;5068027;27;98962;-74
2023/04/25 08:42:21;;;;;;;3.70;1.48;;;;;;;;;;5058562;27;99340;-73
2023/04/25 08:44:48;;;;;;;8.43;2.35;;;;;;;;;;5054876;27;98379;-76
2023/04/25 08:47:15;;;;;;;10.30;1.83;;;;;;;;;;5065715;27;98279;-75
2023/04/25 08:49:47;;;;;;;10.68;2.50;;;;;;;;;;5059357;27;100017;-74
2023/04/25 08:52:21;;;;;;;6.72;1.45;;;;;;;;;;5063874;27;98621;-74
2023/04/25 08:54:48;;;;;;;10.50;2.42;;;;;;;;;;5051280;27;100857;-75
2023/04/25 08:57:16;;;;;;;8.43;2.25;;;;;;;;;;5065569;27;101618;-74
2023/04/25 08:59:45;;;;;;;8.82;2.40;;;;;;;;;;5059535;27;98332;-77
2023/04/25 09:02:15;;;;;;;15.10;2.70;;;;;;;;;;5068730;27;100757;-74
2023/04/25 09:04:45;;;;;;;7.10;1.67;;;;;;;;;;5064369;27;98327;-74
2023/04/25 09:07:11;;;;;;;12.00;1.98;;;;;;;;;;5064915;27;100747;-75
2023/04/25 09:09:39;;;;;;;13.50;1.77;;;;;;;;;;5063903;27;100449;-75
2023/04/25 09:12:05;;;;;;;5.68;1.90;;;;;;;;;;5066960;27;100644;-74
2023/04/25 09:14:31;;;;;;;9.60;2.35;;;;;;;;;;5067336;27;101335;-75
2023/04/25 09:17:03;;;;;;;11.52;1.65;;;;;;;;;;5062371;27;98770;-74
2023/04/25 09:19:43;;;;;;;6.10;2.30;;;;;;;;;;5068583;27;98775;-73
2023/04/25 09:22:18;;;;;;;6.90;1.65;;;;;;;;;;5066470;27;101037;-74
2023/04/25 09:24:45;;;;;;;5.10;1.75;;;;;;;;;;5070532;27;98980;-74
2023/04/25 09:27:17;;;;;;;1.95;1.00;;;;;;;;;;5061396;27;101201;-74
2023/04/25 09:29:44;;;;;;;8.40;1.92;;;;;;;;;;5062985;27;101439;-74
2023/04/25 09:32:22;;;;;;;8.07;2.25;;;;;;;;;;5066068;27;98697;-73
2023/04/25 09:34:51;;;;;;;9.07;1.92;;;;;;;;;;5064103;27;100737;-74
2023/04/25 09:37:24;;;;;;;6.85;1.77;;;;;;;;;;5067054;27;101322;-74
2023/04/25 09:40:10;;;;;;;4.15;1.40;;;;;;;;;;5065612;27;98676;-74
2023/04/25 09:42:50;;;;;;;4.00;1.27;;;;;;;;;;5062669;27;101224;-75
2023/04/25 09:45:17;;;;;;;2.30;1.13;;;;;;;;;;5064996;27;98997;-76
2023/04/25 09:47:43;;;;;;;6.00;1.80;;;;;;;;;;5050700;27;98744;-74
2023/04/25 09:50:15;;;;;;;3.10;1.45;;;;;;;;;;5058765;27;101710;-75
2023/04/25 09:52:45;;;;;;;4.28;1.60;;;;;;;;;;5066071;27;98462;-77
2023/04/25 09:55:17;;;;;;;5.47;1.77;;;;;;;;;;5067447;27;99518;-74
2023/04/25 09:57:49;;;;;;;3.92;1.45;;;;;;;;;;5055088;27;101048;-73
2023/04/25 10:00:17;;;;;;;5.28;1.73;;;;;;;;;;5058302;27;98638;-74
2023/04/25 10:02:46;;;;;;;5.40;1.38;;;;;;;;;;5066457;27;99726;-75
2023/04/25 10:05:30;;;;;;;4.55;1.60;;;;;;;;;;5065762;27;100305;-74
2023/04/25 10:07:57;;;;;;;4.80;1.40;;;;;;;;;;5067987;27;98568;-74
2023/04/25 10:10:27;;;;;;;5.35;0.98;;;;;;;;;;5057022;27;101670;-75
2023/04/25 10:12:56;;;;;;;4.47;1.10;;;;;;;;;;5064500;27;98163;-75
2023/04/25 10:15:23;;;;;;;8.18;1.30;;;;;;;;;;5055280;27;99533;-75
2023/04/25 10:17:49;;;;;;;3.35;1.75;;;;;;;;;;5064443;27;100315;-78
2023/04/25 10:20:16;;;;;;;4.15;1.38;;;;;;;;;;5067377;27;98241;-74
2023/04/25 10:22:44;;;;;;;5.47;1.70;;;;;;;;;;5055467;27;99846;-75
2023/04/25 10:25:11;;;;;;;6.50;1.70;;;;;;;;;;5056684;27;100041;-75
2023/04/25 10:27:38;;;;;;;8.18;1.52;;;;;;;;;;5066313;27;98376;-73
2023/04/25 10:30:09;;;;;;;3.50;1.52;;;;;;;;;;5070536;27;100212;-76
2023/04/25 10:32:36;;;;;;;6.28;1.38;;;;;;;;;;5067575;27;98300;-76
2023/04/25 10:35:16;;;;;;;5.70;1.80;;;;;;;;;;5065732;27;98799;-75
2023/04/25 10:38:01;;;;;;;7.40;1.33;;;;;;;;;;5066900;27;99261;-72
2023/04/25 10:40:27;;;;;;;6.72;1.52;;;;;;;;;;5060282;27;98335;-76
2023/04/25 10:42:55;;;;;;;8.70;1.67;;;;;;;;;;5066384;27;99449;-74
2023/04/25 10:45:21;;;;;;;9.50;1.80;;;;;;;;;;5067233;27;100235;-75
2023/04/25 10:47:48;;;;;;;7.55;1.70;;;;;;;;;;5067792;27;98213;-74
2023/04/25 10:50:16;;;;;;;7.22;1.85;;;;;;;;;;5066336;27;98569;-74
2023/04/25 10:52:43;;;;;;;4.97;1.58;;;;;;;;;;5071073;27;100205;-74
2023/04/25 10:55:10;;;;;;;3.63;1.50;;;;;;;;;;5057862;27;99066;-76
2023/04/25 10:57:38;;;;;;;5.03;1.70;;;;;;;;;;5062413;27;100221;-76
2023/04/25 11:00:12;;;;;;;6.70;1.40;;;;;;;;;;5065274;27;98584;-76
2023/04/25 11:02:46;;;;;;;7.47;1.98;;;;;;;;;;5070899;27;99573;-77
2023/04/25 11:05:33;;;;;;;5.53;1.52;;;;;;;;;;5071152;27;99092;-76
2023/04/25 11:08:10;;;;;;;7.85;2.28;;;;;;;;;;5070479;27;98245;-75
2023/04/25 11:10:36;;;;;;;13.23;1.65;;;;;;;;;;5062722;27;99839;-77
2023/04/25 11:13:03;;;;;;;4.95;2.00;;;;;;;;;;5066605;27;98914;-76
2023/04/25 11:15:29;;;;;;;11.30;2.20;;;;;;;;;;5073123;27;98302;-76
2023/04/25 11:17:56;;;;;;;5.85;2.00;;;;;;;;;;5069299;27;98984;-75
2023/04/25 11:20:25;;;;;;;4.93;1.40;;;;;;;;;;5070401;27;98334;-77
2023/04/25 11:22:52;;;;;;;4.22;1.38;;;;;;;;;;5070831;27;99418;-76
2023/04/25 11:25:18;;;;;;;7.80;1.70;;;;;;;;;;5068307;27;100187;-76
2023/04/25 11:27:58;;;;;;;6.95;2.60;;;;;;;;;;5070875;27;98252;-76
2023/04/25 11:30:26;;;;;;;8.27;2.00;;;;;;;;;;5064109;27;100155;-75
2023/04/25 11:32:52;;;;;;;5.93;1.92;;;;;;;;;;5069885;27;99076;-75
2023/04/25 11:35:20;;;;;;;7.68;1.88;;;;;;;;;;5069226;27;98233;-76
2023/04/25 11:37:46;;;;;;;7.32;2.35;;;;;;;;;;5065899;27;100047;-76
2023/04/25 11:40:13;;;;;;;5.70;1.38;;;;;;;;;;5069547;27;98780;-77
2023/04/25 11:42:42;;;;;;;10.48;2.03;;;;;;;;;;5069988;27;99437;-77
2023/04/25 11:45:09;;;;;;;4.50;1.95;;;;;;;;;;5069406;27;99948;-76
2023/04/25 11:47:36;;;;;;;5.55;1.60;;;;;;;;;;5069904;27;98284;-77
2023/04/25 11:50:03;;;;;;;4.63;1.52;;;;;;;;;;5069614;27;99217;-75
2023/04/25 11:52:39;;;;;;;10.68;2.00;;;;;;;;;;5068702;27;99329;-76
2023/04/25 11:55:16;;;;;;;5.90;1.55;;;;;;;;;;5070400;27;98232;-76
2023/04/25 11:57:43;;;;;;;5.78;2.40;;;;;;;;;;5069810;27;98930;-77
2023/04/25 12:00:11;;;;;;;6.15;1.75;;;;;;;;;;5072740;27;100121;-76
2023/04/25 12:02:40;;;;;;;5.13;1.40;;;;;;;;;;5069618;27;98353;-76
2023/04/25 12:05:10;;;;;;;5.05;1.75;;;;;;;;;;5069841;27;99972;-76
2023/04/25 12:07:57;;;;;;;10.00;1.77;;;;;;;;;;5069103;27;98328;-76
2023/04/25 12:10:24;;;;;;;8.02;1.70;;;;;;;;;;5069138;27;98723;-76
2023/04/25 12:12:51;;;;;;;7.50;2.38;;;;;;;;;;5069593;27;100347;-77
2023/04/25 12:15:26;;;;;;;12.65;1.88;;;;;;;;;;5068172;27;98157;-76
2023/04/25 12:17:54;;;;;;;4.05;1.52;;;;;;;;;;5069383;27;98644;-76
2023/04/25 12:20:23;;;;;;;4.05;1.63;;;;;;;;;;5071476;27;99891;-76
2023/04/25 12:22:50;;;;;;;4.28;1.70;;;;;;;;;;5069497;27;99467;-76
2023/04/25 12:25:35;;;;;;;4.43;1.80;;;;;;;;;;5068885;27;99053;-76
2023/04/25 12:28:15;;;;;;;8.48;2.15;;;;;;;;;;5068032;27;98880;-76
2023/04/25 12:31:01;;;;;;;2.83;1.30;;;;;;;;;;5069427;27;98706;-75
2023/04/25 12:33:29;;;;;;;1.83;1.40;;;;;;;;;;5068157;27;98893;-75
2023/04/25 12:35:55;;;;;;;4.90;1.48;;;;;;;;;;5068388;27;98359;-75
2023/04/25 12:38:23;;;;;;;5.50;2.28;;;;;;;;;;5069605;27;99592;-76
2023/04/25 12:40:49;;;;;;;6.68;1.45;;;;;;;;;;5067872;27;99015;-77
2023/04/25 12:43:16;;;;;;;6.10;1.75;;;;;;;;;;5071392;27;98526;-75
2023/04/25 12:45:42;;;;;;;5.88;1.70;;;;;;;;;;5069526;27;99147;-76
2023/04/25 12:48:08;;;;;;;4.40;1.42;;;;;;;;;;5068618;27;98339;-75
2023/04/25 12:50:35;;;;;;;4.57;1.35;;;;;;;;;;5060216;27;99280;-75
2023/04/25 12:53:01;;;;;;;5.55;1.48;;;;;;;;;;5068366;27;99536;-75
2023/04/25 12:55:28;;;;;;;4.63;1.30;;;;;;;;;;5068158;27;98228;-75
2023/04/25 12:57:54;;;;;;;5.85;0.95;;;;;;;;;;5069292;27;99665;-76
2023/04/25 13:00:20;;;;;;;4.13;1.30;;;;;;;;;;5067452;27;98896;-75
2023/04/25 13:02:47;;;;;;;8.77;1.95;;;;;;;;;;5068065;27;98235;-76
2023/04/25 13:05:13;;;;;;;1.27;1.13;;;;;;;;;;5070746;27;98982;-74
2023/04/25 13:07:40;;;;;;;3.90;1.42;;;;;;;;;;5068487;27;98208;-76
2023/04/25 13:10:08;;;;;;;2.03;1.33;;;;;;;;;;5068132;27;98121;-75
2023/04/25 13:12:34;;;;;;;7.15;1.60;;;;;;;;;;5068042;27;99039;-76
2023/04/25 13:15:01;;;;;;;2.55;1.20;;;;;;;;;;5068974;27;98291;-75
2023/04/25 13:17:27;;;;;;;3.58;1.27;;;;;;;;;;5067160;27;98902;-76
2023/04/25 13:19:54;;;;;;;5.72;1.50;;;;;;;;;;5069066;27;101999;-76
2023/04/25 13:22:20;;;;;;;3.17;1.48;;;;;;;;;;5067905;27;98232;-77
2023/04/25 13:24:47;;;;;;;2.00;1.40;;;;;;;;;;5068287;27;100233;-76
2023/04/25 13:27:14;;;;;;;3.13;1.40;;;;;;;;;;5071926;27;100348;-75
2023/04/25 13:29:40;;;;;;;8.80;1.92;;;;;;;;;;5063522;27;99344;-75
2023/04/25 13:32:07;;;;;;;7.53;1.52;;;;;;;;;;5067519;27;99904;-76
2023/04/25 13:34:34;;;;;;;4.05;1.50;;;;;;;;;;5068322;27;98323;-75
2023/04/25 13:37:00;;;;;;;7.70;1.60;;;;;;;;;;5068904;27;98372;-76
2023/04/25 13:39:27;;;;;;;4.38;1.33;;;;;;;;;;5066418;27;98940;-76
2023/04/25 13:41:53;;;;;;;4.45;1.40;;;;;;;;;;5068055;27;98050;-75
2023/04/25 13:44:19;;;;;;;3.65;1.42;;;;;;;;;;5068235;27;98496;-76
2023/04/25 13:46:46;;;;;;;4.85;1.25;;;;;;;;;;5059728;27;100046;-76
2023/04/25 13:49:13;;;;;;;4.78;1.42;;;;;;;;;;5069996;27;98287;-76
2023/04/25 13:51:40;;;;;;;8.10;1.58;;;;;;;;;;5067152;27;100032;-77
2023/04/25 13:54:07;;;;;;;6.55;1.63;;;;;;;;;;5067619;27;98322;-76
2023/04/25 13:56:33;;;;;;;7.20;2.28;;;;;;;;;;5067577;27;98869;-76
2023/04/25 13:59:00;;;;;;;8.00;2.00;;;;;;;;;;5069302;27;99031;-77
2023/04/25 14:01:27;;;;;;;4.45;1.90;;;;;;;;;;5067523;27;98403;-75
2023/04/25 14:03:54;;;;;;;6.10;1.88;;;;;;;;;;5067966;27;99780;-76
2023/04/25 14:06:23;;;;;;;3.30;1.33;;;;;;;;;;5067135;27;100155;-76
2023/04/25 14:08:50;;;;;;;7.93;2.00;;;;;;;;;;5067954;27;98315;-78
2023/04/25 14:11:18;;;;;;;4.55;1.80;;;;;;;;;;5071478;27;99431;-75
2023/04/25 14:13:45;;;;;;;5.20;1.38;;;;;;;;;;5067341;27;98581;-76
2023/04/25 14:16:11;;;;;;;4.10;1.30;;;;;;;;;;5067603;27;99662;-77
2023/04/25 14:18:37;;;;;;;4.50;1.63;;;;;;;;;;5064131;27;98753;-74
2023/04/25 14:21:04;;;;;;;6.45;1.65;;;;;;;;;;5066242;27;98272;-74
2023/04/25 14:23:31;;;;;;;3.42;1.58;;;;;;;;;;5065345;27;99649;-74
2023/04/25 14:25:57;;;;;;;4.03;1.45;;;;;;;;;;5067748;27;99981;-76
2023/04/25 14:28:24;;;;;;;2.13;1.40;;;;;;;;;;5065862;27;98360;-75
2023/04/25 14:30:50;;;;;;;4.22;1.17;;;;;;;;;;5069000;27;98516;-75
2023/04/25 14:33:17;;;;;;;5.18;1.80;;;;;;;;;;5060121;27;98445;-76
2023/04/25 14:35:43;;;;;;;6.78;1.70;;;;;;;;;;5069003;27;99302;-75
2023/04/25 14:38:10;;;;;;;6.25;1.42;;;;;;;;;;5068184;27;99807;-75
2023/04/25 14:40:37;;;;;;;4.65;1.50;;;;;;;;;;5068396;27;98273;-75
2023/04/25 14:43:03;;;;;;;2.42;1.35;;;;;;;;;;5068848;27;98540;-75
2023/04/25 14:45:30;;;;;;;7.53;1.60;;;;;;;;;;5068697;27;99635;-76
2023/04/25 14:47:56;;;;;;;8.10;1.88;;;;;;;;;;5062622;27;98274;-76
2023/04/25 14:50:23;;;;;;;5.63;1.40;;;;;;;;;;5062193;27;99897;-75